Time;durP1;ratioP1;P1;durP2;ratioP2;P2;SDS_P1;SDS_P2;PMS_P1;PMS_P2;Temp;Humidity;BMP_temperature;BMP_pressure;BME280_temperature;BME280_humidity;BME280_pressure;Samples;Min_cycle;Max_cycle;Signal;HPM_P1;HPM_P2
2021/07/28 00:00:13;;;;;;;12.82;4.03;;;;;;;;;;5046582;28;20106;-85
2021/07/28 00:02:40;;;;;;;5.53;3.78;;;22.20;71.40;;;;;;5043024;28;20285;-85
2021/07/28 00:05:06;;;;;;;10.63;4.72;;;;;;;;;;5045958;28;20739;-84
2021/07/28 00:07:32;;;;;;;7.82;4.05;;;;;;;;;;5042265;28;20774;-85
2021/07/28 00:09:58;;;;;;;8.50;4.10;;;;;;;;;;5047362;28;20037;-84
2021/07/28 00:12:24;;;;;;;11.52;4.63;;;;;;;;;;5045556;28;20112;-84
2021/07/28 00:14:50;;;;;;;7.55;4.57;;;;;;;;;;5045895;28;20109;-85
2021/07/28 00:17:17;;;;;;;7.60;4.35;;;;;;;;;;5046065;28;20123;-85
2021/07/28 00:20:30;;;;;;;9.68;3.72;;;;;;;;;;5045565;28;20509;-86
2021/07/28 00:25:21;;;;;;;6.70;3.65;;;;;;;;;;5046551;28;20094;-85
2021/07/28 00:27:49;;;;;;;6.80;4.15;;;;;;;;;;5043453;28;20379;-85
2021/07/28 00:30:16;;;;;;;10.48;3.97;;;;;;;;;;5045563;28;20049;-86
2021/07/28 00:32:42;;;;;;;6.70;3.47;;;;;;;;;;5061277;28;20060;-85
2021/07/28 00:35:08;;;;;;;13.48;4.43;;;;;;;;;;5046511;28;20060;-85
2021/07/28 00:37:34;;;;;;;12.25;4.25;;;;;;;;;;5042303;28;20048;-85
2021/07/28 00:40:00;;;;;;;10.63;3.38;;;;;;;;;;5046081;28;20494;-85
2021/07/28 00:42:26;;;;;;;7.63;3.63;;;;;;;;;;5045316;28;20025;-85
2021/07/28 00:44:52;;;;;;;7.20;4.25;;;;;;;;;;5041833;28;20037;-85
2021/07/28 00:47:18;;;;;;;11.98;4.20;;;;;;;;;;5046167;28;20027;-85
2021/07/28 00:49:45;;;;;;;7.93;4.00;;;;;;;;;;5039896;28;20104;-86
2021/07/28 00:52:11;;;;;;;7.55;3.97;;;;;;;;;;5047009;28;20033;-85
2021/07/28 00:54:39;;;;;;;8.27;3.95;;;;;;;;;;5043197;28;20078;-86
2021/07/28 00:57:07;;;;;;;5.97;3.65;;;22.00;88.90;;;;;;5045611;28;20128;-86
2021/07/28 00:59:33;;;;;;;5.10;3.28;;;;;;;;;;5044955;28;20045;-86
2021/07/28 01:01:59;;;;;;;9.20;4.38;;;;;;;;;;5046398;28;20115;-86
2021/07/28 01:04:25;;;;;;;7.90;3.92;;;;;;;;;;5045064;28;20036;-85
2021/07/28 01:06:51;;;;;;;7.32;3.40;;;;;;;;;;5051608;28;20124;-85
2021/07/28 01:09:17;;;;;;;7.40;3.75;;;;;;;;;;5048960;28;20025;-85
2021/07/28 01:11:43;;;;;;;7.75;4.38;;;;;;;;;;5049975;28;20035;-85
2021/07/28 01:14:10;;;;;;;10.55;4.15;;;;;;;;;;5048886;28;20022;-86
2021/07/28 01:16:39;;;;;;;6.97;4.05;;;;;;;;;;5049886;28;20393;-85
2021/07/28 01:19:11;;;;;;;7.88;3.97;;;;;;;;;;5046194;28;20032;-85
2021/07/28 01:21:37;;;;;;;7.55;4.35;;;;;;;;;;5049354;28;20447;-85
2021/07/28 01:24:04;;;;;;;9.13;3.70;;;21.40;73.90;;;;;;5048141;28;20394;-85
2021/07/28 01:26:31;;;;;;;9.38;3.83;;;;;;;;;;5049552;28;20028;-85
2021/07/28 01:28:57;;;;;;;7.50;4.15;;;;;;;;;;5047838;28;20612;-84
2021/07/28 01:31:23;;;;;;;5.72;3.67;;;;;;;;;;5050567;28;20113;-85
2021/07/28 01:33:49;;;;;;;6.22;3.67;;;21.60;73.50;;;;;;5064275;28;20033;-85
2021/07/28 01:36:20;;;;;;;8.55;4.07;;;21.60;73.20;;;;;;5047020;28;20502;-85
2021/07/28 01:38:47;;;;;;;9.02;4.22;;;;;;;;;;5045843;28;20071;-85
2021/07/28 01:41:13;;;;;;;6.45;3.65;;;;;;;;;;5049186;28;20036;-85
2021/07/28 01:43:40;;;;;;;7.55;3.25;;;21.50;72.10;;;;;;5048306;28;20553;-86
2021/07/28 01:46:07;;;;;;;6.70;3.10;;;21.70;72.00;;;;;;5051159;28;20619;-85
2021/07/28 01:48:33;;;;;;;8.13;2.85;;;;;;;;;;5045825;28;20576;-85
2021/07/28 01:50:59;;;;;;;4.75;2.13;;;;;;;;;;5062589;28;20033;-85
2021/07/28 01:53:26;;;;;;;7.05;2.63;;;;;;;;;;5042961;28;20391;-86
2021/07/28 01:55:53;;;;;;;5.70;2.92;;;;;;;;;;5048442;28;20045;-84
2021/07/28 01:58:19;;;;;;;4.55;2.47;;;;;;;;;;5047627;28;20032;-84
2021/07/28 02:00:46;;;;;;;3.93;2.40;;;;;;;;;;5048112;28;20401;-85
2021/07/28 02:03:12;;;;;;;5.38;2.40;;;;;;;;;;5047849;28;20018;-85
2021/07/28 02:05:39;;;;;;;4.63;2.15;;;;;;;;;;5048246;28;20049;-85
2021/07/28 02:08:08;;;;;;;5.78;2.00;;;21.70;69.80;;;;;;5048548;28;20025;-84
2021/07/28 02:10:42;;;;;;;5.10;1.90;;;21.70;69.70;;;;;;5048154;28;20075;-84
2021/07/28 02:13:09;;;;;;;9.15;2.35;;;;;;;;;;5047661;28;20025;-85
2021/07/28 02:15:38;;;;;;;3.53;2.30;;;;;;;;;;5047435;28;20513;-85
2021/07/28 02:18:04;;;;;;;5.60;2.42;;;;;;;;;;5044317;28;20040;-84
2021/07/28 02:20:31;;;;;;;3.97;2.10;;;;;;;;;;5047951;28;20025;-86
2021/07/28 02:22:57;;;;;;;3.30;1.88;;;;;;;;;;5047247;28;20029;-85
2021/07/28 02:25:23;;;;;;;5.57;2.25;;;;;;;;;;5048199;28;20045;-85
2021/07/28 02:27:49;;;;;;;5.07;2.85;;;;;;;;;;5044046;28;20024;-86
2021/07/28 02:30:16;;;;;;;4.47;2.78;;;;;;;;;;5047881;28;20037;-85
2021/07/28 02:32:43;;;;;;;4.00;1.65;;;;;;;;;;5048356;28;20040;-84
2021/07/28 02:35:09;;;;;;;4.13;2.15;;;21.40;69.40;;;;;;5048613;28;20040;-85
2021/07/28 02:37:35;;;;;;;3.22;2.20;;;;;;;;;;5060563;28;20387;-84
2021/07/28 02:40:02;;;;;;;3.25;1.85;;;;;;;;;;5048816;28;20021;-85
2021/07/28 02:42:28;;;;;;;3.97;1.60;;;;;;;;;;5047192;28;20021;-85
2021/07/28 02:44:54;;;;;;;5.25;2.63;;;;;;;;;;5046346;28;20579;-84
2021/07/28 02:47:20;;;;;;;2.45;1.70;;;;;;;;;;5048437;28;20028;-86
2021/07/28 02:49:45;;;;;;;4.65;1.88;;;;;;;;;;5042999;28;20959;-84
2021/07/28 02:52:11;;;;;;;2.47;1.50;;;;;;;;;;5049249;28;20123;-85
2021/07/28 02:54:37;;;;;;;3.15;1.90;;;;;;;;;;5046997;28;20477;-84
2021/07/28 02:57:04;;;;;;;3.15;2.05;;;;;;;;;;5062013;28;20057;-85
2021/07/28 02:59:30;;;;;;;4.78;2.20;;;;;;;;;;5047384;28;20036;-85
2021/07/28 03:01:56;;;;;;;5.07;2.72;;;;;;;;;;5045500;28;20033;-85
2021/07/28 03:04:22;;;;;;;2.83;1.98;;;;;;;;;;5051229;28;20079;-85
2021/07/28 03:06:48;;;;;;;3.35;1.60;;;;;;;;;;5048073;28;20099;-85
2021/07/28 03:09:14;;;;;;;5.38;1.65;;;;;;;;;;5046105;28;20463;-84
2021/07/28 03:11:40;;;;;;;2.75;1.50;;;;;;;;;;5047621;28;20032;-85
2021/07/28 03:14:06;;;;;;;5.63;1.73;;;;;;;;;;5043527;28;20494;-84
2021/07/28 03:16:32;;;;;;;2.97;1.85;;;;;;;;;;5047877;28;20035;-84
2021/07/28 03:18:59;;;;;;;4.07;1.77;;;;;;;;;;5047256;28;20100;-85
2021/07/28 03:21:25;;;;;;;3.17;1.92;;;21.10;70.40;;;;;;5046556;28;20029;-85
2021/07/28 03:23:51;;;;;;;6.78;1.48;;;;;;;;;;5047060;28;20025;-85
2021/07/28 03:26:17;;;;;;;3.33;2.08;;;;;;;;;;5047061;28;20129;-84
2021/07/28 03:28:43;;;;;;;6.43;2.35;;;;;;;;;;5045928;28;20025;-84
2021/07/28 03:31:09;;;;;;;2.78;1.75;;;;;;;;;;5048842;28;20055;-84
2021/07/28 03:33:36;;;;;;;3.83;1.83;;;;;;;;;;5046282;28;20857;-85
2021/07/28 03:36:02;;;;;;;2.78;1.42;;;;;;;;;;5046439;28;20035;-85
2021/07/28 03:38:27;;;;;;;4.18;2.03;;;;;;;;;;5046763;28;20051;-85
2021/07/28 03:40:53;;;;;;;2.13;1.67;;;;;;;;;;5061541;28;20072;-85
2021/07/28 03:43:19;;;;;;;4.75;1.63;;;;;;;;;;5047789;28;20017;-84
2021/07/28 03:45:46;;;;;;;2.88;1.70;;;;;;;;;;5046734;28;20091;-84
2021/07/28 03:48:12;;;;;;;2.58;1.63;;;;;;;;;;5044607;28;20028;-84
2021/07/28 03:50:38;;;;;;;4.28;1.67;;;;;;;;;;5044993;28;20037;-83
2021/07/28 03:53:04;;;;;;;4.05;1.85;;;;;;;;;;5047370;28;20072;-84
2021/07/28 03:55:30;;;;;;;4.05;2.08;;;;;;;;;;5044997;28;20418;-85
2021/07/28 03:57:56;;;;;;;4.18;1.35;;;;;;;;;;5045799;28;20034;-83
2021/07/28 04:00:22;;;;;;;6.47;1.60;;;;;;;;;;5045419;28;20594;-84
2021/07/28 04:02:48;;;;;;;2.95;1.73;;;;;;;;;;5046814;28;20024;-84
2021/07/28 04:05:15;;;;;;;5.47;1.63;;;;;;;;;;5045879;28;20072;-84
2021/07/28 04:07:41;;;;;;;3.38;2.17;;;;;;;;;;5047445;28;20100;-83
2021/07/28 04:10:07;;;;;;;1.80;1.08;;;;;;;;;;5044833;28;20414;-85
2021/07/28 04:12:33;;;;;;;2.72;1.27;;;;;;;;;;5045904;28;20032;-84
2021/07/28 04:14:59;;;;;;;3.15;2.10;;;;;;;;;;5044174;28;20036;-84
2021/07/28 04:17:25;;;;;;;4.30;1.45;;;;;;;;;;5046774;28;20017;-84
2021/07/28 04:19:51;;;;;;;2.97;1.67;;;;;;;;;;5042602;28;20033;-84
2021/07/28 04:22:18;;;;;;;4.32;1.42;;;;;;;;;;5048305;28;20402;-85
2021/07/28 04:24:44;;;;;;;1.67;1.38;;;;;;;;;;5045094;28;20031;-84
2021/07/28 04:27:10;;;;;;;3.13;1.88;;;;;;;;;;5046492;28;20033;-84
2021/07/28 04:29:36;;;;;;;5.50;1.35;;;;;;;;;;5045052;28;20036;-83
2021/07/28 04:32:03;;;;;;;3.42;1.48;;;;;;;;;;5061874;28;20021;-84
2021/07/28 04:34:29;;;;;;;2.75;1.40;;;;;;;;;;5045261;28;20048;-85
2021/07/28 04:36:55;;;;;;;3.80;1.17;;;;;;;;;;5045862;28;20052;-84
2021/07/28 04:39:21;;;;;;;2.88;1.70;;;;;;;;;;5044700;28;20029;-84
2021/07/28 04:41:47;;;;;;;2.78;1.40;;;;;;;;;;5046302;28;20081;-84
2021/07/28 04:44:12;;;;;;;5.82;1.60;;;;;;;;;;5041771;28;20123;-86
2021/07/28 04:46:38;;;;;;;4.00;1.88;;;;;;;;;;5046672;28;20036;-84
2021/07/28 04:49:04;;;;;;;4.70;1.50;;;;;;;;;;5046503;28;20497;-83
2021/07/28 04:51:30;;;;;;;1.40;0.88;;;;;;;;;;5045505;28;20147;-85
2021/07/28 04:53:56;;;;;;;4.40;1.17;;;;;;;;;;5045786;28;20568;-85
2021/07/28 04:56:22;;;;;;;3.63;1.40;;;;;;;;;;5046175;28;20041;-85
2021/07/28 04:58:48;;;;;;;1.52;1.17;;;;;;;;;;5044305;28;20167;-84
2021/07/28 05:01:14;;;;;;;2.92;1.70;;;;;;;;;;5046652;28;20111;-84
2021/07/28 05:03:40;;;;;;;2.95;1.50;;;;;;;;;;5045453;28;20029;-84
2021/07/28 05:06:06;;;;;;;3.65;1.52;;;;;;;;;;5043770;28;20041;-84
2021/07/28 05:08:32;;;;;;;3.63;1.92;;;;;;;;;;5045401;28;20017;-84
2021/07/28 05:10:58;;;;;;;3.00;1.42;;;;;;;;;;5044086;28;20071;-85
2021/07/28 05:13:24;;;;;;;3.35;1.80;;;;;;;;;;5043497;28;20017;-84
2021/07/28 05:15:51;;;;;;;2.58;1.77;;;;;;;;;;5040759;28;20029;-86
2021/07/28 05:18:17;;;;;;;3.33;1.63;;;;;;;;;;5056379;28;20021;-83
2021/07/28 05:20:43;;;;;;;2.53;1.23;;;;;;;;;;5072148;28;20040;-85
2021/07/28 05:23:09;;;;;;;6.43;1.92;;;;;;;;;;5040487;28;20026;-85
2021/07/28 05:25:35;;;;;;;1.83;1.20;;;;;;;;;;5041025;28;20056;-84
2021/07/28 05:28:01;;;;;;;3.30;1.35;;;;;;;;;;5044233;28;20425;-83
2021/07/28 05:30:27;;;;;;;3.00;1.75;;;;;;;;;;5038636;28;20486;-84
2021/07/28 05:32:53;;;;;;;3.50;1.50;;;;;;;;;;5039529;28;20060;-81
2021/07/28 05:35:19;;;;;;;5.78;2.30;;;;;;;;;;5043685;28;20032;-80
2021/07/28 05:37:46;;;;;;;4.03;1.40;;;;;;;;;;5044395;28;20501;-81
2021/07/28 05:40:12;;;;;;;4.28;1.80;;;;;;;;;;5045605;28;20406;-81
2021/07/28 05:42:38;;;;;;;2.50;1.95;;;;;;;;;;5059348;28;20021;-81
2021/07/28 05:45:04;;;;;;;6.28;2.03;;;;;;;;;;5044309;28;20565;-80
2021/07/28 05:47:30;;;;;;;6.20;2.00;;;;;;;;;;5044550;28;20429;-81
2021/07/28 05:49:58;;;;;;;3.80;1.60;;;;;;;;;;5044442;28;20490;-80
2021/07/28 05:52:24;;;;;;;2.92;2.13;;;;;;;;;;5048099;28;20017;-80
2021/07/28 05:54:50;;;;;;;4.63;1.88;;;;;;;;;;5048420;28;20025;-80
2021/07/28 05:57:16;;;;;;;3.42;1.73;;;;;;;;;;5048026;28;20522;-81
2021/07/28 05:59:42;;;;;;;8.05;2.42;;;;;;;;;;5046589;28;20043;-80
2021/07/28 06:02:08;;;;;;;8.00;1.83;;;;;;;;;;5048631;28;20032;-80
2021/07/28 06:04:34;;;;;;;3.45;1.38;;;;;;;;;;5047756;28;20496;-80
2021/07/28 06:07:00;;;;;;;4.20;1.63;;;;;;;;;;5048782;28;20501;-80
2021/07/28 06:09:26;;;;;;;3.72;1.77;;;;;;;;;;5047683;28;20508;-81
2021/07/28 06:11:52;;;;;;;3.42;1.50;;;;;;;;;;5063141;28;20119;-80
2021/07/28 06:14:18;;;;;;;3.70;1.77;;;;;;;;;;5046388;28;20029;-81
2021/07/28 06:16:44;;;;;;;5.25;1.75;;;;;;;;;;5048910;28;20075;-78
2021/07/28 06:19:10;;;;;;;4.50;1.60;;;;;;;;;;5048941;28;20033;-79
2021/07/28 06:21:36;;;;;;;4.38;1.58;;;;;;;;;;5045104;28;20052;-79
2021/07/28 06:24:02;;;;;;;11.57;1.58;;;;;;;;;;5046321;28;20220;-80
2021/07/28 06:26:28;;;;;;;3.40;1.95;;;;;;;;;;5048156;28;20033;-79
2021/07/28 06:28:54;;;;;;;7.50;1.88;;;;;;;;;;5046759;28;20107;-79
2021/07/28 06:31:20;;;;;;;2.40;1.17;;;;;;;;;;5049123;28;20596;-79
2021/07/28 06:33:46;;;;;;;2.25;1.63;;;;;;;;;;5043287;28;20059;-80
2021/07/28 06:36:12;;;;;;;6.68;2.60;;;;;;;;;;5047017;28;20021;-80
2021/07/28 06:38:38;;;;;;;18.40;1.98;;;;;;;;;;5042413;28;20123;-80
2021/07/28 06:41:06;;;;;;;5.28;1.77;;;;;;;;;;5046212;28;20029;-75
2021/07/28 06:43:32;;;;;;;3.33;1.35;;;;;;;;;;5043107;28;20033;-76
2021/07/28 06:46:01;;;;;;;3.45;1.95;;;22.60;65.70;;;;;;5048163;28;20033;-76
2021/07/28 06:48:27;;;;;;;3.33;1.70;;;;;;;;;;5046801;28;20389;-76
2021/07/28 06:50:53;;;;;;;3.42;1.60;;;;;;;;;;5059063;28;20040;-75
2021/07/28 06:53:20;;;;;;;4.50;2.70;;;;;;;;;;5047143;28;20033;-76
2021/07/28 06:55:46;;;;;;;7.90;2.28;;;;;;;;;;5046894;28;20294;-75
2021/07/28 06:58:12;;;;;;;4.28;1.52;;;;;;;;;;5047981;28;20466;-76
2021/07/28 07:00:38;;;;;;;6.57;1.85;;;;;;;;;;5046092;28;20029;-76
2021/07/28 07:03:04;;;;;;;2.85;1.67;;;;;;;;;;5048401;28;20021;-76
2021/07/28 07:05:30;;;;;;;4.10;1.83;;;;;;;;;;5045678;28;20033;-75
2021/07/28 07:07:55;;;;;;;4.13;1.77;;;22.40;85.90;;;;;;5039116;28;20067;-75
2021/07/28 07:10:21;;;;;;;5.85;2.67;;;22.40;76.60;;;;;;5047235;28;20029;-75
2021/07/28 07:12:47;;;;;;;4.15;2.45;;;;;;;;;;5040522;28;20029;-76
2021/07/28 07:15:14;;;;;;;3.25;1.42;;;;;;;;;;5045455;28;20043;-76
2021/07/28 07:17:40;;;;;;;3.40;1.77;;;;;;;;;;5047337;28;20476;-76
2021/07/28 07:20:06;;;;;;;4.65;1.83;;;22.80;66.60;;;;;;5044104;28;20379;-75
2021/07/28 07:22:32;;;;;;;7.22;2.25;;;22.90;69.80;;;;;;5047695;28;20125;-76
2021/07/28 07:24:58;;;;;;;3.17;2.00;;;;;;;;;;5042454;28;20141;-75
2021/07/28 07:27:24;;;;;;;5.80;1.70;;;;;;;;;;5045769;28;20371;-76
2021/07/28 07:29:50;;;;;;;4.35;1.40;;;;;;;;;;5046300;28;20121;-76
2021/07/28 07:32:21;;;;;;;5.63;2.05;;;23.80;61.90;;;;;;5046676;28;20025;-76
2021/07/28 07:34:47;;;;;;;4.43;2.00;;;;;;;;;;5042175;28;20033;-75
2021/07/28 07:37:13;;;;;;;3.58;2.03;;;;;;;;;;5049502;28;20041;-91
2021/07/28 07:39:39;;;;;;;3.45;1.70;;;;;;;;;;5046635;28;20059;-85
2021/07/28 07:42:05;;;;;;;5.75;1.70;;;;;;;;;;5048148;28;20060;-88
2021/07/28 07:44:31;;;;;;;3.17;1.40;;;;;;;;;;5048562;28;20107;-89
2021/07/28 07:46:57;;;;;;;3.70;2.05;;;;;;;;;;5044610;28;20029;-84
2021/07/28 07:49:23;;;;;;;4.63;2.25;;;;;;;;;;5046303;28;20025;-86
2021/07/28 07:51:49;;;;;;;3.70;1.15;;;;;;;;;;5043507;28;20035;-84
2021/07/28 07:54:15;;;;;;;8.88;1.83;;;;;;;;;;5042149;28;20387;-85
2021/07/28 07:56:41;;;;;;;2.50;1.58;;;;;;;;;;5046045;28;20049;-86
2021/07/28 07:59:07;;;;;;;4.22;1.80;;;;;;;;;;5043477;28;20422;-85
2021/07/28 08:01:33;;;;;;;2.80;1.38;;;;;;;;;;5046632;28;20033;-84
2021/07/28 08:03:59;;;;;;;3.92;1.50;;;;;;;;;;5043241;28;20036;-83
2021/07/28 08:06:25;;;;;;;2.20;1.15;;;;;;;;;;5043639;28;20033;-84
2021/07/28 08:08:51;;;;;;;2.67;1.42;;;;;;;;;;5044931;28;20067;-86
2021/07/28 08:11:17;;;;;;;2.63;1.17;;;;;;;;;;5044630;28;20405;-85
2021/07/28 08:13:43;;;;;;;2.03;1.17;;;;;;;;;;5043582;28;20025;-86
2021/07/28 08:16:13;;;;;;;3.70;1.90;;;;;;;;;;5047927;28;20057;-86
2021/07/28 08:18:39;;;;;;;4.32;1.67;;;;;;;;;;5042068;28;20074;-85
2021/07/28 08:21:08;;;;;;;2.25;1.27;;;;;;;;;;5044608;28;20025;-85
2021/07/28 08:23:34;;;;;;;2.80;1.35;;;;;;;;;;5044349;28;20041;-83
2021/07/28 08:26:00;;;;;;;2.70;0.85;;;;;;;;;;5041667;28;20033;-84
2021/07/28 08:28:26;;;;;;;3.65;1.58;;;;;;;;;;5044951;28;20024;-85
2021/07/28 08:30:55;;;;;;;2.20;1.25;;;;;;;;;;5056644;28;20070;-86
2021/07/28 08:33:25;;;;;;;3.30;1.02;;;34.90;34.50;;;;;;5044082;28;20041;-86
2021/07/28 08:35:51;;;;;;;1.40;0.80;;;;;;;;;;5043578;28;20413;-85
2021/07/28 08:38:20;;;;;;;2.67;1.15;;;;;;;;;;5043890;28;20029;-85
2021/07/28 08:40:49;;;;;;;2.22;1.27;;;32.50;35.50;;;;;;5037742;28;20037;-85
2021/07/28 08:43:18;;;;;;;3.38;1.50;;;31.50;36.60;;;;;;5045251;28;20071;-84
2021/07/28 08:45:47;;;;;;;3.15;1.73;;;;;;;;;;5045019;28;20037;-84
2021/07/28 08:48:15;;;;;;;3.50;1.17;;;29.60;39.80;;;;;;5044174;28;20079;-83
2021/07/28 08:50:41;;;;;;;8.55;3.10;;;;;;;;;;5043030;28;20017;-84
2021/07/28 08:53:08;;;;;;;2.97;1.45;;;;;;;;;;5061820;28;20056;-84
2021/07/28 08:55:34;;;;;;;4.65;1.15;;;;;;;;;;5044491;28;20025;-85
2021/07/28 08:58:00;;;;;;;2.40;1.55;;;;;;;;;;5044305;28;20438;-88
2021/07/28 09:00:26;;;;;;;3.40;1.30;;;;;;;;;;5040358;28;20029;-87
2021/07/28 09:02:55;;;;;;;2.30;1.15;;;;;;;;;;5042985;28;20021;-87
2021/07/28 09:05:21;;;;;;;3.13;1.35;;;;;;;;;;5042835;28;20528;-84
2021/07/28 09:07:54;;;;;;;3.92;2.35;;;29.90;42.70;;;;;;5045238;28;20021;-85
2021/07/28 09:10:20;;;;;;;7.80;1.50;;;;;;;;;;5043391;28;20081;-85
2021/07/28 09:12:47;;;;;;;1.50;1.08;;;;;;;;;;5045288;28;20029;-84
2021/07/28 09:15:16;;;;;;;2.28;1.08;;;;;;;;;;5044044;28;20047;-85
2021/07/28 09:17:47;;;;;;;2.60;1.67;;;;;;;;;;5044978;28;20029;-84
2021/07/28 09:20:23;;;;;;;1.98;1.00;;;37.80;32.80;;;;;;5044276;28;20037;-85
2021/07/28 09:22:49;;;;;;;4.55;1.17;;;;;;;;;;5043627;28;20437;-86
2021/07/28 09:25:20;;;;;;;2.90;1.85;;;39.60;30.00;;;;;;5040696;28;20041;-85
2021/07/28 09:27:51;;;;;;;3.08;1.17;;;40.40;30.00;;;;;;5048633;28;20036;-85
2021/07/28 09:30:29;;;;;;;2.88;0.82;;;41.20;28.60;;;;;;5047949;28;20024;-85
2021/07/28 09:33:00;;;;;;;3.25;1.02;;;41.80;27.90;;;;;;5046691;28;20036;-84
2021/07/28 09:35:49;;;;;;;2.70;0.93;;;42.90;27.60;;;;;;5047164;28;20094;-86
2021/07/28 09:38:35;;;;;;;1.90;0.95;;;39.20;26.60;;;;;;5041979;28;20036;-85
2021/07/28 09:41:11;;;;;;;4.20;2.03;;;;;;;;;;5048109;28;20032;-85
2021/07/28 09:43:52;;;;;;;3.22;1.50;;;41.00;27.90;;;;;;5044523;28;20764;-85
2021/07/28 09:46:24;;;;;;;2.30;1.17;;;40.70;27.40;;;;;;5044845;28;20049;-86
2021/07/28 09:48:50;;;;;;;3.42;1.17;;;;;;;;;;5044084;28;20044;-85
2021/07/28 09:51:30;;;;;;;3.10;0.93;;;40.30;27.40;;;;;;5048189;28;20128;-85
2021/07/28 09:54:03;;;;;;;2.45;1.20;;;39.60;27.00;;;;;;5044965;28;20037;-85
2021/07/28 09:56:34;;;;;;;3.80;0.98;;;38.70;27.70;;;;;;5039855;28;20061;-85
2021/07/28 09:59:00;;;;;;;2.38;1.08;;;;;;;;;;5044968;28;20048;-85
2021/07/28 10:01:31;;;;;;;3.60;1.38;;;38.50;28.30;;;;;;5045928;28;20120;-86
2021/07/28 10:03:59;;;;;;;3.13;1.52;;;38.80;27.70;;;;;;5045998;28;20091;-86
2021/07/28 10:06:30;;;;;;;4.20;1.42;;;43.70;30.90;;;;;;5044101;28;20037;-85
2021/07/28 10:08:57;;;;;;;2.55;1.05;;;;;;;;;;5047565;28;20040;-87
2021/07/28 10:11:24;;;;;;;4.68;0.93;;;;;;;;;;5047127;28;20116;-85
2021/07/28 10:13:54;;;;;;;4.35;1.95;;;39.70;27.10;;;;;;5044781;28;20038;-86
2021/07/28 10:16:20;;;;;;;1.73;0.95;;;;;;;;;;5048352;28;20071;-86
2021/07/28 10:18:46;;;;;;;2.58;0.75;;;;;;;;;;5045325;28;20021;-86
2021/07/28 10:21:12;;;;;;;2.53;0.98;;;;;;;;;;5043132;28;20040;-85
2021/07/28 10:23:38;;;;;;;5.10;1.15;;;;;;;;;;5045212;28;20136;-86
2021/07/28 10:26:05;;;;;;;1.50;1.17;;;42.40;25.60;;;;;;5043728;28;20045;-86
2021/07/28 10:28:32;;;;;;;2.90;1.00;;;;;;;;;;5046256;28;20040;-86
2021/07/28 10:31:15;;;;;;;3.10;1.83;;;43.00;24.70;;;;;;5046966;28;20142;-86
2021/07/28 10:33:52;;;;;;;2.00;1.08;;;44.00;24.10;;;;;;5045398;28;20489;-86
2021/07/28 10:36:19;;;;;;;2.17;0.70;;;44.40;23.90;;;;;;5046245;28;20028;-86
2021/07/28 10:38:54;;;;;;;3.20;1.08;;;45.70;24.40;;;;;;5042890;28;20052;-86
2021/07/28 10:41:39;;;;;;;1.58;1.02;;;46.00;23.70;;;;;;5046604;28;20037;-88
2021/07/28 10:44:13;;;;;;;3.03;1.25;;;46.50;22.80;;;;;;5043520;28;20033;-85
2021/07/28 10:46:54;;;;;;;2.45;1.83;;;;;;;;;;5047391;28;20584;-87
2021/07/28 10:49:29;;;;;;;2.72;1.45;;;;;;;;;;5048235;28;20033;-86
2021/07/28 10:51:55;;;;;;;3.35;0.82;;;;;;;;;;5047730;28;20032;-88
2021/07/28 10:54:51;;;;;;;2.58;1.15;;;49.10;21.20;;;;;;5047194;28;20044;-86
2021/07/28 10:57:37;;;;;;;2.08;1.30;;;;;;;;;;5046749;28;20058;-87
2021/07/28 11:00:03;;;;;;;1.80;1.00;;;;;;;;;;5043825;28;20679;-88
2021/07/28 11:02:57;;;;;;;3.30;1.42;;;50.00;20.40;;;;;;5048125;28;20063;-88
2021/07/28 11:05:30;;;;;;;3.10;1.10;;;50.20;20.60;;;;;;5038869;28;20516;-84
2021/07/28 11:07:59;;;;;;;3.90;0.93;;;;;;;;;;5047959;28;20061;-86
2021/07/28 11:10:45;;;;;;;3.85;1.20;;;49.40;20.80;;;;;;5047167;28;20082;-86
2021/07/28 11:13:19;;;;;;;1.98;1.08;;;47.90;20.90;;;;;;5034248;28;20079;-84
2021/07/28 11:16:02;;;;;;;2.85;1.40;;;43.60;21.80;;;;;;5042086;28;20498;-85
2021/07/28 11:18:43;;;;;;;2.80;1.33;;;;;;;;;;5043601;28;20077;-85
2021/07/28 11:21:14;;;;;;;2.40;1.02;;;37.20;26.60;;;;;;5046539;28;20231;-84
2021/07/28 11:24:05;;;;;;;3.55;1.67;;;35.50;27.10;;;;;;5045498;28;20029;-85
2021/07/28 11:26:35;;;;;;;3.25;0.90;;;;;;;;;;5033740;28;20048;-85
2021/07/28 11:29:07;;;;;;;2.00;0.98;;;33.00;29.90;;;;;;5040886;28;20017;-85
2021/07/28 11:31:33;;;;;;;3.20;1.13;;;;;;;;;;5046471;28;20579;-86
2021/07/28 11:34:03;;;;;;;6.53;1.70;;;;;;;;;;5041935;28;20021;-86
2021/07/28 11:36:29;;;;;;;3.50;1.45;;;;;;;;;;5058257;28;20051;-86
2021/07/28 11:38:55;;;;;;;3.53;1.33;;;;;;;;;;5047012;28;21425;-85
2021/07/28 11:41:22;;;;;;;3.00;1.50;;;30.90;34.20;;;;;;5046595;28;20057;-86
2021/07/28 11:43:48;;;;;;;4.07;1.88;;;;;;;;;;5046018;28;20040;-87
2021/07/28 11:46:18;;;;;;;2.58;1.20;;;;;;;;;;5047375;28;20041;-88
2021/07/28 11:48:44;;;;;;;3.80;1.65;;;;;;;;;;5045169;28;20031;-86
2021/07/28 11:51:24;;;;;;;3.33;1.55;;;;;;;;;;5039210;28;20036;-85
2021/07/28 11:53:50;;;;;;;3.38;2.25;;;;;;;;;;5045367;28;20052;-89
2021/07/28 11:56:16;;;;;;;2.30;1.23;;;;;;;;;;5047057;28;20047;-88
2021/07/28 11:58:49;;;;;;;2.97;1.58;;;;;;;;;;5041369;28;20818;-89
2021/07/28 12:01:21;;;;;;;2.00;1.42;;;;;;;;;;5063616;28;20037;-88
2021/07/28 12:04:10;;;;;;;4.25;1.63;;;30.30;34.60;;;;;;5047625;28;20061;-89
2021/07/28 12:06:39;;;;;;;3.53;1.35;;;30.10;34.90;;;;;;5046478;28;20048;-87
2021/07/28 12:09:11;;;;;;;3.03;1.20;;;;;;;;;;5045291;28;20573;-88
2021/07/28 12:12:06;;;;;;;3.72;1.30;;;30.10;37.30;;;;;;5045077;28;20037;-86
2021/07/28 12:14:38;;;;;;;2.15;1.27;;;30.20;37.60;;;;;;5045070;28;20094;-85
2021/07/28 12:17:17;;;;;;;2.63;1.40;;;30.30;36.20;;;;;;5042404;28;20033;-89
2021/07/28 12:19:51;;;;;;;2.75;1.60;;;;;;;;;;5038871;28;20029;-88
2021/07/28 12:22:36;;;;;;;2.83;1.50;;;30.10;35.80;;;;;;5046455;28;20409;-87
2021/07/28 12:25:22;;;;;;;5.35;1.38;;;;;;;;;;5046479;28;20083;-88
2021/07/28 12:28:04;;;;;;;2.55;1.00;;;29.60;36.30;;;;;;5046596;28;20029;-87
2021/07/28 12:30:37;;;;;;;3.50;1.42;;;29.70;37.90;;;;;;5041385;28;20445;-90
2021/07/28 12:33:03;;;;;;;3.17;1.42;;;;;;;;;;5062135;28;20045;-87
2021/07/28 12:35:29;;;;;;;2.15;1.30;;;;;;;;;;5045363;28;20051;-84
2021/07/28 12:38:24;;;;;;;5.10;1.52;;;30.10;36.90;;;;;;5040926;28;20124;-85
2021/07/28 12:40:54;;;;;;;4.45;2.22;;;;;;;;;;5043914;28;20021;-83
2021/07/28 12:43:21;;;;;;;3.10;1.60;;;;;;;;;;5045752;28;20547;-86
2021/07/28 12:45:52;;;;;;;2.30;1.00;;;29.70;36.00;;;;;;5040783;28;20033;-83
2021/07/28 12:48:19;;;;;;;2.42;1.35;;;;;;;;;;5044231;28;20037;-84
2021/07/28 12:50:45;;;;;;;4.03;1.73;;;;;;;;;;5044845;28;20119;-83
2021/07/28 12:53:11;;;;;;;6.07;1.10;;;;;;;;;;5043029;28;20190;-83
2021/07/28 12:55:37;;;;;;;2.90;1.60;;;;;;;;;;5043690;28;20032;-84
2021/07/28 12:58:03;;;;;;;3.05;1.40;;;;;;;;;;5045606;28;20043;-83
2021/07/28 13:00:30;;;;;;;3.75;1.77;;;;;;;;;;5041592;28;20377;-83
2021/07/28 13:02:56;;;;;;;5.70;1.80;;;;;;;;;;5048573;28;20029;-87
2021/07/28 13:05:26;;;;;;;2.80;1.73;;;;;;;;;;5051913;28;20067;-87
2021/07/28 13:10:36;;;;;;;3.47;1.50;;;;;;;;;;5089960;27;1426750;-85
2021/07/28 13:13:02;;;;;;;;;;;29.40;36.40;;;;;;5113673;28;20035;-84
2021/07/28 13:15:28;;;;;;;10.00;1.90;;;;;;;;;;5105445;28;19912;-88
2021/07/28 13:17:54;;;;;;;2.92;1.40;;;29.30;37.10;;;;;;5126265;27;20521;-88
2021/07/28 13:20:21;;;;;;;4.37;1.90;;;;;;;;;;5112450;28;20027;-88
2021/07/28 13:22:47;;;;;;;4.22;1.77;;;;;;;;;;5114146;28;20260;-87
2021/07/28 13:25:13;;;;;;;2.53;1.40;;;;;;;;;;5103830;28;20024;-87
2021/07/28 13:27:39;;;;;;;3.07;1.47;;;;;;;;;;5112157;28;20023;-88
2021/07/28 13:30:10;;;;;;;2.97;1.40;;;29.40;36.40;;;;;;5113844;28;20695;-89
2021/07/28 13:32:36;;;;;;;2.78;1.33;;;;;;;;;;5111578;28;20520;-89
2021/07/28 13:35:03;;;;;;;3.85;1.60;;;29.40;38.20;;;;;;5122074;28;20042;-88
2021/07/28 13:37:29;;;;;;;6.70;1.20;;;;;;;;;;5117588;28;20028;-87
2021/07/28 13:39:55;;;;;;;3.17;1.75;;;;;;;;;;5126113;27;20028;-88
2021/07/28 13:42:21;;;;;;;3.00;1.27;;;;;;;;;;5113175;28;20023;-89
2021/07/28 13:44:47;;;;;;;2.38;1.27;;;;;;;;;;5124236;27;20096;-87
2021/07/28 13:47:13;;;;;;;2.20;1.50;;;;;;;;;;5120951;28;20024;-88
2021/07/28 13:49:39;;;;;;;4.95;1.98;;;;;;;;;;5114516;28;20039;-89
2021/07/28 13:52:05;;;;;;;5.45;1.27;;;;;;;;;;5115745;28;20026;-87
2021/07/28 13:54:31;;;;;;;3.10;1.45;;;;;;;;;;5122343;28;20115;-88
2021/07/28 13:57:15;;;;;;;4.97;1.75;;;28.90;37.10;;;;;;5113206;28;20157;-89
2021/07/28 13:59:42;;;;;;;1.88;0.95;;;;;;;;;;5115032;28;20595;-86
2021/07/28 14:02:08;;;;;;;2.53;1.33;;;;;;;;;;5108959;27;20102;-86
2021/07/28 14:04:35;;;;;;;3.53;1.40;;;;;;;;;;5110961;28;20030;-88
2021/07/28 14:07:01;;;;;;;2.38;1.20;;;;;;;;;;5107342;28;20024;-87
2021/07/28 14:09:27;;;;;;;2.15;1.10;;;;;;;;;;5115381;28;20101;-89
2021/07/28 14:11:53;;;;;;;2.47;1.17;;;;;;;;;;5136368;27;20035;-88
2021/07/28 14:14:19;;;;;;;2.17;1.63;;;;;;;;;;5113098;28;20055;-88
2021/07/28 14:16:45;;;;;;;3.20;1.67;;;;;;;;;;5118632;28;20495;-86
2021/07/28 14:19:17;;;;;;;3.92;1.67;;;;;;;;;;5115789;28;20023;-87
2021/07/28 14:21:43;;;;;;;2.97;1.52;;;;;;;;;;5086157;27;20517;-87
2021/07/28 14:24:09;;;;;;;5.68;2.03;;;;;;;;;;5098237;28;20036;-87
2021/07/28 14:26:35;;;;;;;2.28;1.25;;;;;;;;;;5088540;28;20061;-87